sensor_id;sensor_type;location;lat;lon;timestamp;pressure;altitude;pressure_sealevel;temperature;humidity
36692;BME280;22678;52.052;4.242;2023-03-19T00:01:49;101039.50;;;11.37;97.79
36692;BME280;22678;52.052;4.242;2023-03-19T00:04:14;101054.44;;;11.37;97.72
36692;BME280;22678;52.052;4.242;2023-03-19T00:06:41;101071.91;;;11.47;98.10
36692;BME280;22678;52.052;4.242;2023-03-19T00:09:06;101075.47;;;11.42;97.96
36692;BME280;22678;52.052;4.242;2023-03-19T00:11:32;101083.41;;;11.38;97.98
36692;BME280;22678;52.052;4.242;2023-03-19T00:13:58;101071.16;;;11.33;97.99
36692;BME280;22678;52.052;4.242;2023-03-19T00:16:23;101066.78;;;11.27;97.97
36692;BME280;22678;52.052;4.242;2023-03-19T00:18:49;101072.06;;;11.26;98.10
36692;BME280;22678;52.052;4.242;2023-03-19T00:21:14;101081.72;;;11.27;97.84
36692;BME280;22678;52.052;4.242;2023-03-19T00:23:39;101081.75;;;11.25;97.71
36692;BME280;22678;52.052;4.242;2023-03-19T00:26:05;101089.69;;;11.19;97.69
36692;BME280;22678;52.052;4.242;2023-03-19T00:28:30;101048.59;;;10.93;97.61
36692;BME280;22678;52.052;4.242;2023-03-19T00:30:56;101074.88;;;11.01;97.68
36692;BME280;22678;52.052;4.242;2023-03-19T00:33:22;101082.75;;;11.04;97.45
36692;BME280;22678;52.052;4.242;2023-03-19T00:35:47;101087.22;;;10.94;97.65
36692;BME280;22678;52.052;4.242;2023-03-19T00:38:13;101082.81;;;10.93;97.82
36692;BME280;22678;52.052;4.242;2023-03-19T00:40:38;101065.34;;;10.80;97.88
36692;BME280;22678;52.052;4.242;2023-03-19T00:43:04;101068.84;;;10.82;97.69
36692;BME280;22678;52.052;4.242;2023-03-19T00:45:29;101006.84;;;10.38;97.52
36692;BME280;22678;52.052;4.242;2023-03-19T00:47:56;101076.78;;;10.76;97.48
36692;BME280;22678;52.052;4.242;2023-03-19T00:50:22;101085.53;;;10.75;97.40
36692;BME280;22678;52.052;4.242;2023-03-19T00:52:49;101071.59;;;10.63;97.38
36692;BME280;22678;52.052;4.242;2023-03-19T00:55:15;101090.78;;;10.75;97.42
36692;BME280;22678;52.052;4.242;2023-03-19T00:57:40;101064.59;;;10.55;97.35
36692;BME280;22678;52.052;4.242;2023-03-19T01:00:06;101087.38;;;10.60;96.76
36692;BME280;22678;52.052;4.242;2023-03-19T01:02:32;101113.66;;;10.66;96.41
36692;BME280;22678;52.052;4.242;2023-03-19T01:04:58;101098.78;;;10.58;96.22
36692;BME280;22678;52.052;4.242;2023-03-19T01:07:23;101104.03;;;10.58;95.69
36692;BME280;22678;52.052;4.242;2023-03-19T01:09:48;101101.47;;;10.47;95.60
36692;BME280;22678;52.052;4.242;2023-03-19T01:12:14;101097.13;;;10.37;95.73
36692;BME280;22678;52.052;4.242;2023-03-19T01:14:39;101087.47;;;10.29;95.53
36692;BME280;22678;52.052;4.242;2023-03-19T01:17:05;101106.72;;;10.31;95.15
36692;BME280;22678;52.052;4.242;2023-03-19T01:19:31;101122.50;;;10.31;95.14
36692;BME280;22678;52.052;4.242;2023-03-19T01:21:56;101109.38;;;10.24;95.00
36692;BME280;22678;52.052;4.242;2023-03-19T01:24:22;101094.50;;;10.12;94.40
36692;BME280;22678;52.052;4.242;2023-03-19T01:26:47;101079.66;;;10.02;94.84
36692;BME280;22678;52.052;4.242;2023-03-19T01:29:13;101089.28;;;10.04;94.85
36692;BME280;22678;52.052;4.242;2023-03-19T01:31:38;101106.78;;;10.07;94.80
36692;BME280;22678;52.052;4.242;2023-03-19T01:34:03;101111.16;;;10.08;94.64
36692;BME280;22678;52.052;4.242;2023-03-19T01:36:29;101091.91;;;9.93;94.78
36692;BME280;22678;52.052;4.242;2023-03-19T01:38:55;101074.44;;;9.77;94.94
36692;BME280;22678;52.052;4.242;2023-03-19T01:41:21;101095.41;;;9.86;94.73
36692;BME280;22678;52.052;4.242;2023-03-19T01:43:47;101108.56;;;9.92;95.08
36692;BME280;22678;52.052;4.242;2023-03-19T01:48:43;101098.06;;;9.83;95.53
36692;BME280;22678;52.052;4.242;2023-03-19T01:51:14;101097.19;;;9.81;95.59
36692;BME280;22678;52.052;4.242;2023-03-19T01:53:44;101054.31;;;9.54;95.69
36692;BME280;22678;52.052;4.242;2023-03-19T01:56:17;101084.94;;;9.71;95.80
36692;BME280;22678;52.052;4.242;2023-03-19T01:58:45;101106.81;;;9.79;96.07
36692;BME280;22678;52.052;4.242;2023-03-19T02:01:12;101101.56;;;9.76;96.08
36692;BME280;22678;52.052;4.242;2023-03-19T02:03:38;101103.34;;;9.66;96.22
36692;BME280;22678;52.052;4.242;2023-03-19T02:06:05;101098.09;;;9.61;96.38
36692;BME280;22678;52.052;4.242;2023-03-19T02:08:31;101106.81;;;9.67;96.61
36692;BME280;22678;52.052;4.242;2023-03-19T02:10:57;101109.44;;;9.65;96.78
36692;BME280;22678;52.052;4.242;2023-03-19T02:13:25;101087.56;;;9.58;96.88
36692;BME280;22678;52.052;4.242;2023-03-19T02:15:52;101103.34;;;9.61;96.99
36692;BME280;22678;52.052;4.242;2023-03-19T02:18:17;101112.06;;;9.63;97.09
36692;BME280;22678;52.052;4.242;2023-03-19T02:20:57;101119.09;;;9.68;97.58
36692;BME280;22678;52.052;4.242;2023-03-19T02:23:33;101115.59;;;9.72;97.67
36692;BME280;22678;52.052;4.242;2023-03-19T02:26:05;101109.44;;;9.67;97.39
36692;BME280;22678;52.052;4.242;2023-03-19T02:28:32;101112.97;;;9.70;97.81
36692;BME280;22678;52.052;4.242;2023-03-19T02:30:59;101112.94;;;9.64;97.88
36692;BME280;22678;52.052;4.242;2023-03-19T02:33:24;101104.22;;;9.54;97.83
36692;BME280;22678;52.052;4.242;2023-03-19T02:35:51;101115.56;;;9.62;97.91
36692;BME280;22678;52.052;4.242;2023-03-19T02:38:17;101124.31;;;9.58;97.94
36692;BME280;22678;52.052;4.242;2023-03-19T02:41:07;101125.22;;;9.56;98.26
36692;BME280;22678;52.052;4.242;2023-03-19T02:43:35;101099.78;;;9.36;98.27
36692;BME280;22678;52.052;4.242;2023-03-19T02:46:02;101098.06;;;9.37;98.29
36692;BME280;22678;52.052;4.242;2023-03-19T02:48:28;101118.19;;;9.49;98.72
36692;BME280;22678;52.052;4.242;2023-03-19T02:50:54;101085.81;;;9.29;98.85
36692;BME280;22678;52.052;4.242;2023-03-19T02:53:19;101092.81;;;9.34;99.07
36692;BME280;22678;52.052;4.242;2023-03-19T02:55:45;101119.94;;;9.46;99.02
36692;BME280;22678;52.052;4.242;2023-03-19T02:58:10;101091.06;;;9.29;99.33
36692;BME280;22678;52.052;4.242;2023-03-19T03:00:36;101106.81;;;9.39;98.96
36692;BME280;22678;52.052;4.242;2023-03-19T03:03:02;101105.94;;;9.35;98.95
36692;BME280;22678;52.052;4.242;2023-03-19T03:05:28;101108.56;;;9.43;99.31
36692;BME280;22678;52.052;4.242;2023-03-19T03:07:54;101113.81;;;9.40;99.22
36692;BME280;22678;52.052;4.242;2023-03-19T03:10:19;101112.06;;;9.36;99.25
36692;BME280;22678;52.052;4.242;2023-03-19T03:12:44;101100.66;;;9.23;99.28
36692;BME280;22678;52.052;4.242;2023-03-19T03:15:11;101127.81;;;9.39;98.93
36692;BME280;22678;52.052;4.242;2023-03-19T03:17:42;101105.03;;;9.25;98.73
36692;BME280;22678;52.052;4.242;2023-03-19T03:20:10;101111.16;;;9.20;98.78
36692;BME280;22678;52.052;4.242;2023-03-19T03:22:37;101126.03;;;9.32;98.77
36692;BME280;22678;52.052;4.242;2023-03-19T03:25:03;101126.03;;;9.25;98.78
36692;BME280;22678;52.052;4.242;2023-03-19T03:27:29;101129.53;;;9.24;98.26
36692;BME280;22678;52.052;4.242;2023-03-19T03:29:54;101107.66;;;9.15;98.56
36692;BME280;22678;52.052;4.242;2023-03-19T03:32:19;101123.41;;;9.15;98.67
36692;BME280;22678;52.052;4.242;2023-03-19T03:34:46;101112.88;;;9.05;98.71
36692;BME280;22678;52.052;4.242;2023-03-19T03:37:11;101115.53;;;9.07;99.17
36692;BME280;22678;52.052;4.242;2023-03-19T03:39:36;101110.22;;;8.98;99.18
36692;BME280;22678;52.052;4.242;2023-03-19T03:42:02;101120.72;;;9.01;99.43
36692;BME280;22678;52.052;4.242;2023-03-19T03:44:27;101110.22;;;8.94;99.32
36692;BME280;22678;52.052;4.242;2023-03-19T03:46:52;101134.75;;;9.00;99.54
36692;BME280;22678;52.052;4.242;2023-03-19T03:49:18;101129.50;;;8.97;99.58
36692;BME280;22678;52.052;4.242;2023-03-19T03:51:43;101124.19;;;8.90;99.61
36692;BME280;22678;52.052;4.242;2023-03-19T03:54:08;101107.56;;;8.82;99.88
36692;BME280;22678;52.052;4.242;2023-03-19T03:56:34;101134.75;;;9.00;100.00
36692;BME280;22678;52.052;4.242;2023-03-19T03:58:59;101141.69;;;8.94;100.00
36692;BME280;22678;52.052;4.242;2023-03-19T04:01:25;101133.81;;;8.90;100.00
36692;BME280;22678;52.052;4.242;2023-03-19T04:03:51;101107.53;;;8.73;100.00
36692;BME280;22678;52.052;4.242;2023-03-19T04:06:18;101131.19;;;8.88;100.00
36692;BME280;22678;52.052;4.242;2023-03-19T04:08:45;101124.19;;;8.87;100.00
36692;BME280;22678;52.052;4.242;2023-03-19T04:11:11;101136.47;;;9.01;100.00
36692;BME280;22678;52.052;4.242;2023-03-19T04:13:36;101135.59;;;8.99;100.00
36692;BME280;22678;52.052;4.242;2023-03-19T04:16:06;101139.09;;;9.01;100.00
36692;BME280;22678;52.052;4.242;2023-03-19T04:18:32;101131.22;;;9.01;100.00
36692;BME280;22678;52.052;4.242;2023-03-19T04:20:57;101136.47;;;8.99;100.00
36692;BME280;22678;52.052;4.242;2023-03-19T04:23:23;101129.44;;;8.93;100.00
36692;BME280;22678;52.052;4.242;2023-03-19T04:25:49;101110.19;;;8.77;100.00
36692;BME280;22678;52.052;4.242;2023-03-19T04:28:15;101143.47;;;8.92;100.00
36692;BME280;22678;52.052;4.242;2023-03-19T04:30:40;101136.44;;;8.90;100.00
36692;BME280;22678;52.052;4.242;2023-03-19T04:33:07;101131.19;;;8.85;100.00
36692;BME280;22678;52.052;4.242;2023-03-19T04:35:33;101157.44;;;8.94;100.00
36692;BME280;22678;52.052;4.242;2023-03-19T04:37:58;101147.81;;;8.92;100.00
36692;BME280;22678;52.052;4.242;2023-03-19T04:40:23;101139.91;;;8.81;100.00
36692;BME280;22678;52.052;4.242;2023-03-19T04:42:49;101179.31;;;8.97;100.00
36692;BME280;22678;52.052;4.242;2023-03-19T04:45:15;101176.66;;;8.95;100.00
36692;BME280;22678;52.052;4.242;2023-03-19T04:47:40;101183.66;;;8.91;100.00
36692;BME280;22678;52.052;4.242;2023-03-19T04:50:07;101178.38;;;8.82;100.00
36692;BME280;22678;52.052;4.242;2023-03-19T04:52:34;101173.97;;;8.75;100.00
36692;BME280;22678;52.052;4.242;2023-03-19T04:55:02;101153.84;;;8.68;100.00
36692;BME280;22678;52.052;4.242;2023-03-19T04:57:27;101183.63;;;8.81;100.00
36692;BME280;22678;52.052;4.242;2023-03-19T04:59:52;101175.69;;;8.74;100.00
36692;BME280;22678;52.052;4.242;2023-03-19T05:02:18;101181.84;;;8.75;100.00
36692;BME280;22678;52.052;4.242;2023-03-19T05:04:43;101171.28;;;8.63;100.00
36692;BME280;22678;52.052;4.242;2023-03-19T05:07:08;101188.78;;;8.70;100.00
36692;BME280;22678;52.052;4.242;2023-03-19T05:09:33;101180.06;;;8.68;100.00
36692;BME280;22678;52.052;4.242;2023-03-19T05:11:59;101195.81;;;8.77;100.00
36692;BME280;22678;52.052;4.242;2023-03-19T05:14:24;101191.44;;;8.73;100.00
36692;BME280;22678;52.052;4.242;2023-03-19T05:16:49;101160.75;;;8.50;100.00
36692;BME280;22678;52.052;4.242;2023-03-19T05:21:43;101200.19;;;8.69;100.00
36692;BME280;22678;52.052;4.242;2023-03-19T05:24:09;101207.16;;;8.74;100.00
36692;BME280;22678;52.052;4.242;2023-03-19T05:26:34;101180.03;;;8.62;100.00
36692;BME280;22678;52.052;4.242;2023-03-19T05:29:02;101202.81;;;8.72;100.00
36692;BME280;22678;52.052;4.242;2023-03-19T05:31:27;101203.66;;;8.69;100.00
36692;BME280;22678;52.052;4.242;2023-03-19T05:33:52;101202.78;;;8.67;100.00
36692;BME280;22678;52.052;4.242;2023-03-19T05:36:18;101206.28;;;8.68;100.00
36692;BME280;22678;52.052;4.242;2023-03-19T05:38:43;101207.16;;;8.68;100.00
36692;BME280;22678;52.052;4.242;2023-03-19T05:41:08;101201.88;;;8.64;100.00
36692;BME280;22678;52.052;4.242;2023-03-19T05:43:34;101196.63;;;8.64;100.00
36692;BME280;22678;52.052;4.242;2023-03-19T05:45:59;101211.53;;;8.71;100.00
36692;BME280;22678;52.052;4.242;2023-03-19T05:48:25;101210.69;;;8.76;100.00
36692;BME280;22678;52.052;4.242;2023-03-19T05:50:50;101218.56;;;8.78;100.00
36692;BME280;22678;52.052;4.242;2023-03-19T05:53:17;101208.06;;;8.75;100.00
36692;BME280;22678;52.052;4.242;2023-03-19T05:55:43;101215.09;;;8.79;100.00
36692;BME280;22678;52.052;4.242;2023-03-19T05:58:08;101218.56;;;8.75;100.00
36692;BME280;22678;52.052;4.242;2023-03-19T06:00:34;101210.69;;;8.75;100.00
36692;BME280;22678;52.052;4.242;2023-03-19T06:03:00;101227.31;;;8.83;100.00
36692;BME280;22678;52.052;4.242;2023-03-19T06:05:26;101224.72;;;8.85;100.00
36692;BME280;22678;52.052;4.242;2023-03-19T06:07:51;101223.81;;;8.81;100.00
36692;BME280;22678;52.052;4.242;2023-03-19T06:10:17;101214.19;;;8.77;100.00
36692;BME280;22678;52.052;4.242;2023-03-19T06:12:42;101220.34;;;8.82;100.00
36692;BME280;22678;52.052;4.242;2023-03-19T06:15:08;101222.06;;;8.80;100.00
36692;BME280;22678;52.052;4.242;2023-03-19T06:17:34;101236.09;;;8.88;100.00
36692;BME280;22678;52.052;4.242;2023-03-19T06:20:00;101229.06;;;8.81;100.00
36692;BME280;22678;52.052;4.242;2023-03-19T06:22:25;101238.75;;;8.90;100.00
36692;BME280;22678;52.052;4.242;2023-03-19T06:24:51;101227.31;;;8.80;100.00
36692;BME280;22678;52.052;4.242;2023-03-19T06:27:16;101247.47;;;8.92;100.00
36692;BME280;22678;52.052;4.242;2023-03-19T06:29:42;101248.38;;;8.92;100.00
36692;BME280;22678;52.052;4.242;2023-03-19T06:32:07;101244.84;;;8.90;100.00
36692;BME280;22678;52.052;4.242;2023-03-19T06:34:33;101245.75;;;8.91;100.00
36692;BME280;22678;52.052;4.242;2023-03-19T06:36:59;101255.41;;;8.97;100.00
36692;BME280;22678;52.052;4.242;2023-03-19T06:39:24;101254.47;;;8.93;100.00
36692;BME280;22678;52.052;4.242;2023-03-19T06:41:50;101262.38;;;9.01;100.00
36692;BME280;22678;52.052;4.242;2023-03-19T06:44:15;101257.97;;;8.93;100.00
36692;BME280;22678;52.052;4.242;2023-03-19T06:46:41;101254.50;;;8.96;100.00
36692;BME280;22678;52.052;4.242;2023-03-19T06:49:06;101255.41;;;8.97;100.00
36692;BME280;22678;52.052;4.242;2023-03-19T06:51:32;101266.75;;;9.00;100.00
36692;BME280;22678;52.052;4.242;2023-03-19T06:53:57;101269.38;;;8.99;100.00
36692;BME280;22678;52.052;4.242;2023-03-19T06:56:22;101273.78;;;9.01;100.00
36692;BME280;22678;52.052;4.242;2023-03-19T06:58:48;101283.44;;;9.08;100.00
36692;BME280;22678;52.052;4.242;2023-03-19T07:01:13;101287.78;;;9.09;100.00
36692;BME280;22678;52.052;4.242;2023-03-19T07:03:38;101287.78;;;9.05;100.00
36692;BME280;22678;52.052;4.242;2023-03-19T07:06:04;101288.63;;;9.04;100.00
36692;BME280;22678;52.052;4.242;2023-03-19T07:08:29;101283.38;;;9.04;100.00
36692;BME280;22678;52.052;4.242;2023-03-19T07:10:55;101280.75;;;9.02;100.00
36692;BME280;22678;52.052;4.242;2023-03-19T07:13:21;101281.66;;;9.03;100.00
36692;BME280;22678;52.052;4.242;2023-03-19T07:15:47;101284.28;;;9.01;100.00
36692;BME280;22678;52.052;4.242;2023-03-19T07:18:12;101289.53;;;9.04;100.00
36692;BME280;22678;52.052;4.242;2023-03-19T07:20:37;101298.28;;;9.08;100.00
36692;BME280;22678;52.052;4.242;2023-03-19T07:23:03;101300.91;;;9.08;100.00
36692;BME280;22678;52.052;4.242;2023-03-19T07:25:28;101293.88;;;9.04;100.00
36692;BME280;22678;52.052;4.242;2023-03-19T07:27:53;101306.13;;;9.02;100.00
36692;BME280;22678;52.052;4.242;2023-03-19T07:30:19;101301.75;;;9.05;100.00
36692;BME280;22678;52.052;4.242;2023-03-19T07:32:44;101319.28;;;9.12;100.00
36692;BME280;22678;52.052;4.242;2023-03-19T07:35:10;101308.78;;;9.08;100.00
36692;BME280;22678;52.052;4.242;2023-03-19T07:37:35;101311.41;;;9.08;100.00
36692;BME280;22678;52.052;4.242;2023-03-19T07:40:01;101313.19;;;9.15;100.00
36692;BME280;22678;52.052;4.242;2023-03-19T07:42:27;101324.63;;;9.23;100.00
36692;BME280;22678;52.052;4.242;2023-03-19T07:44:52;101325.50;;;9.25;100.00
36692;BME280;22678;52.052;4.242;2023-03-19T07:47:18;101317.59;;;9.24;100.00
36692;BME280;22678;52.052;4.242;2023-03-19T07:49:43;101316.75;;;9.26;100.00
36692;BME280;22678;52.052;4.242;2023-03-19T07:52:08;101314.97;;;9.21;100.00
36692;BME280;22678;52.052;4.242;2023-03-19T07:54:34;101339.53;;;9.31;100.00
36692;BME280;22678;52.052;4.242;2023-03-19T07:56:59;101319.38;;;9.23;100.00
36692;BME280;22678;52.052;4.242;2023-03-19T07:59:25;101330.75;;;9.32;100.00
36692;BME280;22678;52.052;4.242;2023-03-19T08:01:50;101346.53;;;9.36;100.00
36692;BME280;22678;52.052;4.242;2023-03-19T08:04:16;101352.69;;;9.37;100.00
36692;BME280;22678;52.052;4.242;2023-03-19T08:06:41;101352.69;;;9.40;100.00
36692;BME280;22678;52.052;4.242;2023-03-19T08:09:07;101345.66;;;9.36;100.00
36692;BME280;22678;52.052;4.242;2023-03-19T08:11:33;101332.53;;;9.33;100.00
36692;BME280;22678;52.052;4.242;2023-03-19T08:13:59;101347.44;;;9.41;100.00
36692;BME280;22678;52.052;4.242;2023-03-19T08:16:24;101358.81;;;9.45;100.00
36692;BME280;22678;52.052;4.242;2023-03-19T08:18:50;101358.81;;;9.46;100.00
36692;BME280;22678;52.052;4.242;2023-03-19T08:21:16;101365.00;;;9.52;100.00
36692;BME280;22678;52.052;4.242;2023-03-19T08:23:41;101364.97;;;9.47;100.00
36692;BME280;22678;52.052;4.242;2023-03-19T08:26:06;101368.47;;;9.49;100.00
36692;BME280;22678;52.052;4.242;2023-03-19T08:28:32;101376.38;;;9.55;100.00
36692;BME280;22678;52.052;4.242;2023-03-19T08:31:05;101373.72;;;9.51;100.00
36692;BME280;22678;52.052;4.242;2023-03-19T08:33:30;101383.38;;;9.55;100.00
36692;BME280;22678;52.052;4.242;2023-03-19T08:36:04;101377.25;;;9.50;100.00
36692;BME280;22678;52.052;4.242;2023-03-19T08:38:29;101379.88;;;9.51;100.00
36692;BME280;22678;52.052;4.242;2023-03-19T08:40:54;101384.22;;;9.52;100.00
36692;BME280;22678;52.052;4.242;2023-03-19T08:43:26;101378.97;;;9.52;100.00
36692;BME280;22678;52.052;4.242;2023-03-19T08:45:51;101384.22;;;9.52;100.00
36692;BME280;22678;52.052;4.242;2023-03-19T08:48:16;101375.50;;;9.52;100.00
36692;BME280;22678;52.052;4.242;2023-03-19T08:50:42;101372.84;;;9.47;100.00
36692;BME280;22678;52.052;4.242;2023-03-19T08:53:07;101392.19;;;9.68;100.00
36692;BME280;22678;52.052;4.242;2023-03-19T08:55:32;101383.44;;;9.69;100.00
36692;BME280;22678;52.052;4.242;2023-03-19T08:57:57;101383.47;;;9.75;100.00
36692;BME280;22678;52.052;4.242;2023-03-19T09:00:23;101387.00;;;9.86;100.00
36692;BME280;22678;52.052;4.242;2023-03-19T09:02:48;101387.00;;;9.89;100.00
36692;BME280;22678;52.052;4.242;2023-03-19T09:05:13;101392.31;;;9.98;100.00
36692;BME280;22678;52.052;4.242;2023-03-19T09:07:39;101381.78;;;9.92;100.00
36692;BME280;22678;52.052;4.242;2023-03-19T09:10:04;101381.75;;;9.89;100.00
36692;BME280;22678;52.052;4.242;2023-03-19T09:12:30;101397.59;;;10.05;100.00
36692;BME280;22678;52.052;4.242;2023-03-19T09:14:55;101394.09;;;10.09;100.00
36692;BME280;22678;52.052;4.242;2023-03-19T09:17:20;101407.25;;;10.20;100.00
36692;BME280;22678;52.052;4.242;2023-03-19T09:19:46;101394.09;;;10.09;100.00
36692;BME280;22678;52.052;4.242;2023-03-19T09:22:11;101414.28;;;10.25;100.00
36692;BME280;22678;52.052;4.242;2023-03-19T09:24:36;101412.50;;;10.23;100.00
36692;BME280;22678;52.052;4.242;2023-03-19T09:27:02;101422.16;;;10.25;100.00
36692;BME280;22678;52.052;4.242;2023-03-19T09:29:27;101421.31;;;10.25;100.00
36692;BME280;22678;52.052;4.242;2023-03-19T09:31:52;101432.69;;;10.25;100.00
36692;BME280;22678;52.052;4.242;2023-03-19T09:34:18;101438.78;;;10.21;100.00
36692;BME280;22678;52.052;4.242;2023-03-19T09:36:43;101375.63;;;9.84;99.59
36692;BME280;22678;52.052;4.242;2023-03-19T09:39:08;101437.03;;;10.17;99.48
36692;BME280;22678;52.052;4.242;2023-03-19T09:44:34;101443.19;;;10.16;99.65
36692;BME280;22678;52.052;4.242;2023-03-19T09:47:25;101442.28;;;10.18;100.00
36692;BME280;22678;52.052;4.242;2023-03-19T09:49:53;101458.09;;;10.23;99.71
36692;BME280;22678;52.052;4.242;2023-03-19T09:52:30;101456.34;;;10.24;99.85
36692;BME280;22678;52.052;4.242;2023-03-19T09:55:03;101453.69;;;10.22;99.83
36692;BME280;22678;52.052;4.242;2023-03-19T09:57:35;101468.56;;;10.22;99.69
36692;BME280;22678;52.052;4.242;2023-03-19T10:00:29;101464.22;;;10.19;99.60
36692;BME280;22678;52.052;4.242;2023-03-19T10:05:50;101469.50;;;10.28;99.54
36692;BME280;22678;52.052;4.242;2023-03-19T10:16:23;101459.81;;;10.24;99.32
36692;BME280;22678;52.052;4.242;2023-03-19T10:18:51;101479.19;;;10.40;99.33
36692;BME280;22678;52.052;4.242;2023-03-19T10:21:30;101487.97;;;10.44;99.33
36692;BME280;22678;52.052;4.242;2023-03-19T10:24:27;101494.97;;;10.48;99.34
36692;BME280;22678;52.052;4.242;2023-03-19T10:26:59;101480.09;;;10.50;99.24
36692;BME280;22678;52.052;4.242;2023-03-19T10:29:26;101483.59;;;10.50;98.65
36692;BME280;22678;52.052;4.242;2023-03-19T10:32:02;101488.00;;;10.58;98.70
36692;BME280;22678;52.052;4.242;2023-03-19T10:34:33;101487.13;;;10.63;98.60
36692;BME280;22678;52.052;4.242;2023-03-19T10:37:05;101481.03;;;10.66;98.63
36692;BME280;22678;52.052;4.242;2023-03-19T10:39:34;101474.84;;;10.68;98.36
36692;BME280;22678;52.052;4.242;2023-03-19T10:42:09;101477.50;;;10.75;97.99
36692;BME280;22678;52.052;4.242;2023-03-19T10:44:59;101470.50;;;10.69;98.21
36692;BME280;22678;52.052;4.242;2023-03-19T10:47:26;101476.63;;;10.79;97.84
36692;BME280;22678;52.052;4.242;2023-03-19T10:49:52;101478.41;;;10.81;97.69
36692;BME280;22678;52.052;4.242;2023-03-19T10:52:23;101485.41;;;10.87;97.85
36692;BME280;22678;52.052;4.242;2023-03-19T10:54:55;101478.38;;;10.86;97.54
36692;BME280;22678;52.052;4.242;2023-03-19T10:57:24;101481.88;;;10.85;97.47
36692;BME280;22678;52.052;4.242;2023-03-19T10:59:51;101494.19;;;10.94;97.05
36692;BME280;22678;52.052;4.242;2023-03-19T11:02:23;101506.47;;;10.93;96.92
36692;BME280;22678;52.052;4.242;2023-03-19T11:07:39;101504.72;;;11.04;96.81
36692;BME280;22678;52.052;4.242;2023-03-19T11:10:11;101506.50;;;11.09;96.35
36692;BME280;22678;52.052;4.242;2023-03-19T11:12:38;101495.06;;;11.14;96.29
36692;BME280;22678;52.052;4.242;2023-03-19T11:15:17;101507.34;;;11.23;95.60
36692;BME280;22678;52.052;4.242;2023-03-19T11:17:46;101508.25;;;11.27;95.29
36692;BME280;22678;52.052;4.242;2023-03-19T11:20:32;101510.00;;;11.32;95.08
36692;BME280;22678;52.052;4.242;2023-03-19T11:22:59;101510.00;;;11.32;95.18
36692;BME280;22678;52.052;4.242;2023-03-19T11:25:36;101502.97;;;11.34;95.00
36692;BME280;22678;52.052;4.242;2023-03-19T11:28:17;101510.84;;;11.42;94.73
36692;BME280;22678;52.052;4.242;2023-03-19T11:44:04;101523.16;;;11.46;92.75
36692;BME280;22678;52.052;4.242;2023-03-19T11:55:04;101516.94;;;11.83;91.71
36692;BME280;22678;52.052;4.242;2023-03-19T11:57:51;101516.81;;;12.26;91.76
36692;BME280;22678;52.052;4.242;2023-03-19T12:00:26;101513.88;;;12.78;90.82
36692;BME280;22678;52.052;4.242;2023-03-19T12:05:59;101516.88;;;13.50;88.07
36692;BME280;22678;52.052;4.242;2023-03-19T12:08:42;101522.19;;;13.45;86.28
36692;BME280;22678;52.052;4.242;2023-03-19T12:19:08;101527.00;;;12.91;83.63
36692;BME280;22678;52.052;4.242;2023-03-19T12:24:25;101529.78;;;12.65;83.10
36692;BME280;22678;52.052;4.242;2023-03-19T12:27:07;101541.25;;;12.62;83.68
36692;BME280;22678;52.052;4.242;2023-03-19T12:35:00;101521.13;;;12.46;83.89
36692;BME280;22678;52.052;4.242;2023-03-19T12:37:31;101554.47;;;12.60;83.96
36692;BME280;22678;52.052;4.242;2023-03-19T12:42:43;101542.19;;;12.53;83.01
36692;BME280;22678;52.052;4.242;2023-03-19T12:45:23;101547.47;;;12.52;82.71
36692;BME280;22678;52.052;4.242;2023-03-19T12:47:54;101538.75;;;12.39;82.56
36692;BME280;22678;52.052;4.242;2023-03-19T12:50:22;101565.13;;;12.36;82.67
36692;BME280;22678;52.052;4.242;2023-03-19T12:52:50;101577.44;;;12.31;83.11
36692;BME280;22678;52.052;4.242;2023-03-19T13:00:31;101592.47;;;11.99;84.51
36692;BME280;22678;52.052;4.242;2023-03-19T13:03:02;101604.81;;;11.94;84.63
36692;BME280;22678;52.052;4.242;2023-03-19T13:05:44;101592.50;;;11.84;85.21
36692;BME280;22678;52.052;4.242;2023-03-19T13:11:01;101600.41;;;11.68;85.60
36692;BME280;22678;52.052;4.242;2023-03-19T13:16:45;101592.50;;;11.53;86.74
36692;BME280;22678;52.052;4.242;2023-03-19T13:19:25;101595.13;;;11.42;87.17
36692;BME280;22678;52.052;4.242;2023-03-19T13:21:54;101583.72;;;11.45;87.46
36692;BME280;22678;52.052;4.242;2023-03-19T13:24:26;101591.63;;;11.46;87.63
36692;BME280;22678;52.052;4.242;2023-03-19T13:26:53;101596.03;;;11.46;88.03
36692;BME280;22678;52.052;4.242;2023-03-19T13:29:22;101587.22;;;11.34;87.97
36692;BME280;22678;52.052;4.242;2023-03-19T13:31:48;101595.13;;;11.39;87.94
36692;BME280;22678;52.052;4.242;2023-03-19T13:34:20;101611.81;;;11.39;88.13
36692;BME280;22678;52.052;4.242;2023-03-19T13:36:52;101591.63;;;11.31;88.39
36692;BME280;22678;52.052;4.242;2023-03-19T13:39:20;101606.56;;;11.39;88.60
36692;BME280;22678;52.052;4.242;2023-03-19T13:41:51;101617.09;;;11.46;88.48
36692;BME280;22678;52.052;4.242;2023-03-19T13:50:27;101636.38;;;11.54;88.76
36692;BME280;22678;52.052;4.242;2023-03-19T13:53:16;101646.94;;;11.57;88.21
36692;BME280;22678;52.052;4.242;2023-03-19T13:55:49;101641.66;;;11.52;88.06
36692;BME280;22678;52.052;4.242;2023-03-19T13:58:20;101639.03;;;11.46;88.40
36692;BME280;22678;52.052;4.242;2023-03-19T14:01:09;101653.97;;;11.46;88.01
36692;BME280;22678;52.052;4.242;2023-03-19T14:06:39;101648.66;;;11.33;87.97
36692;BME280;22678;52.052;4.242;2023-03-19T14:09:35;101632.84;;;11.30;88.08
36692;BME280;22678;52.052;4.242;2023-03-19T14:14:55;101631.09;;;11.26;88.64
36692;BME280;22678;52.052;4.242;2023-03-19T14:17:30;101632.84;;;11.33;88.83
36692;BME280;22678;52.052;4.242;2023-03-19T14:20:02;101625.88;;;11.32;89.16
36692;BME280;22678;52.052;4.242;2023-03-19T14:28:41;101649.56;;;11.54;88.71
36692;BME280;22678;52.052;4.242;2023-03-19T14:31:22;101638.16;;;11.52;88.95